createdAt,value
2022-09-22T00:00:57.717Z,102546.84
2022-09-22T00:03:25.632Z,102548.63
2022-09-22T00:06:00.422Z,102542.50
2022-09-22T00:08:28.627Z,102541.69
2022-09-22T00:11:04.542Z,102545.13
2022-09-22T00:13:34.618Z,102545.13
2022-09-22T00:16:03.187Z,102544.44
2022-09-22T00:18:31.072Z,102541.09
2022-09-22T00:20:59.219Z,102544.94
2022-09-22T00:23:29.051Z,102540.03
2022-09-22T00:25:56.605Z,102546.56
2022-09-22T00:28:26.352Z,102538.03
2022-09-22T00:30:55.238Z,102535.50
2022-09-22T00:33:22.761Z,102532.25
2022-09-22T00:35:58.658Z,102532.53
2022-09-22T00:38:26.526Z,102535.28
2022-09-22T00:40:54.381Z,102530.13
2022-09-22T00:43:25.822Z,102526.88
2022-09-22T00:45:57.091Z,102529.78
2022-09-22T00:48:28.025Z,102530.19
2022-09-22T00:50:59.014Z,102526.78
2022-09-22T00:53:27.961Z,102528.84
2022-09-22T00:55:59.870Z,102522.00
2022-09-22T00:58:30.990Z,102519.22
2022-09-22T01:01:00.735Z,102519.47
2022-09-22T01:03:30.181Z,102516.94
2022-09-22T01:06:01.926Z,102516.09
2022-09-22T01:08:31.985Z,102517.94
2022-09-22T01:11:00.298Z,102509.13
2022-09-22T01:13:35.702Z,102513.72
2022-09-22T01:16:35.749Z,102513.84
2022-09-22T01:19:34.002Z,102507.84
2022-09-22T01:22:15.925Z,102505.19
2022-09-22T01:25:11.583Z,102507.09
2022-09-22T01:28:05.094Z,102506.38
2022-09-22T01:30:39.829Z,102502.19
2022-09-22T01:33:21.986Z,102503.16
2022-09-22T01:36:09.382Z,102505.09
2022-09-22T01:38:45.929Z,102498.25
2022-09-22T01:41:22.233Z,102492.19
2022-09-22T01:43:54.800Z,102486.19
2022-09-22T01:46:29.831Z,102489.94
2022-09-22T01:49:01.581Z,102484.75
2022-09-22T01:51:35.494Z,102487.41
2022-09-22T01:54:07.398Z,102484.03
2022-09-22T01:56:38.049Z,102482.25
2022-09-22T01:59:08.407Z,102488.38
2022-09-22T02:01:42.298Z,102476.94
2022-09-22T02:04:15.277Z,102477.91
2022-09-22T02:06:47.328Z,102477.81
2022-09-22T02:09:18.168Z,102477.06
2022-09-22T02:11:45.981Z,102480.69
2022-09-22T02:14:14.432Z,102474.66
2022-09-22T02:16:43.713Z,102469.63
2022-09-22T02:19:17.045Z,102464.56
2022-09-22T02:21:46.866Z,102474.59
2022-09-22T02:24:27.762Z,102466.97
2022-09-22T02:26:56.470Z,102469.03
2022-09-22T02:29:25.211Z,102470.97
2022-09-22T02:31:55.368Z,102462.31
2022-09-22T02:34:23.281Z,102465.91
2022-09-22T02:36:59.349Z,102462.66
2022-09-22T02:39:34.257Z,102477.13
2022-09-22T02:42:16.522Z,102466.88
2022-09-22T02:44:49.078Z,102466.19
2022-09-22T02:47:23.502Z,102467.97
2022-09-22T02:49:52.382Z,102465.44
2022-09-22T02:52:21.758Z,102470.03
2022-09-22T02:54:49.319Z,102461.97
2022-09-22T02:57:16.912Z,102463.03
2022-09-22T02:59:44.446Z,102458.59
2022-09-22T03:02:12.328Z,102457.88
2022-09-22T03:04:41.382Z,102457.03
2022-09-22T03:07:08.936Z,102461.47
2022-09-22T03:09:36.480Z,102458.03
2022-09-22T03:12:04.158Z,102464.13
2022-09-22T03:14:31.697Z,102455.38
2022-09-22T03:16:59.245Z,102447.53
2022-09-22T03:19:26.817Z,102450.19
2022-09-22T03:21:55.686Z,102455.47
2022-09-22T03:24:23.232Z,102444.78
2022-09-22T03:26:51.106Z,102443.81
2022-09-22T03:29:18.644Z,102448.16
2022-09-22T03:31:46.179Z,102449.56
2022-09-22T03:34:13.772Z,102449.31
2022-09-22T03:36:41.346Z,102445.47
2022-09-22T03:39:10.233Z,102444.97
2022-09-22T03:41:38.309Z,102441.97
2022-09-22T03:44:05.836Z,102441.59
2022-09-22T03:46:34.385Z,102443.91
2022-09-22T03:49:03.111Z,102440.72
2022-09-22T03:51:30.862Z,102441.22
2022-09-22T03:53:58.398Z,102451.44
2022-09-22T03:56:27.299Z,102444.06
2022-09-22T03:58:54.936Z,102444.66
2022-09-22T04:01:22.528Z,102444.53
2022-09-22T04:03:50.209Z,102442.63
2022-09-22T04:06:17.742Z,102442.72
2022-09-22T04:08:45.771Z,102436.47
2022-09-22T04:11:13.473Z,102442.47
2022-09-22T04:13:46.236Z,102445.72
2022-09-22T04:16:14.502Z,102436.56
2022-09-22T04:18:42.089Z,102442.31
2022-09-22T04:21:10.281Z,102436.75
2022-09-22T04:23:37.953Z,102439.00
2022-09-22T04:26:06.431Z,102443.78
2022-09-22T04:28:34.290Z,102445.13
2022-09-22T04:31:03.230Z,102441.38
2022-09-22T04:33:30.848Z,102438.19
2022-09-22T04:35:58.389Z,102430.84
2022-09-22T04:38:26.374Z,102445.50
2022-09-22T04:40:54.184Z,102443.28
2022-09-22T04:43:21.701Z,102440.38
2022-09-22T04:45:49.443Z,102447.38
2022-09-22T04:48:18.405Z,102435.53
2022-09-22T04:50:48.246Z,102439.59
2022-09-22T04:53:16.517Z,102437.53
2022-09-22T04:55:44.062Z,102432.69
2022-09-22T04:58:11.589Z,102425.44
2022-09-22T05:00:39.146Z,102422.53
2022-09-22T05:03:09.435Z,102427.41
2022-09-22T05:05:38.475Z,102429.00
2022-09-22T05:08:07.597Z,102426.88
2022-09-22T05:10:35.764Z,102426.63
2022-09-22T05:13:03.513Z,102422.03
2022-09-22T05:15:32.590Z,102425.38
2022-09-22T05:18:00.265Z,102418.28
2022-09-22T05:20:27.826Z,102424.00
2022-09-22T05:22:56.687Z,102423.91
2022-09-22T05:25:24.449Z,102420.13
2022-09-22T05:27:53.480Z,102424.31
2022-09-22T05:30:22.829Z,102431.88
2022-09-22T05:32:51.201Z,102429.78
2022-09-22T05:35:21.023Z,102435.81
2022-09-22T05:37:50.273Z,102430.25
2022-09-22T05:40:20.469Z,102438.91
2022-09-22T05:42:49.549Z,102440.31
2022-09-22T05:45:18.345Z,102440.19
2022-09-22T05:47:46.345Z,102438.09
2022-09-22T05:50:16.646Z,102432.09
2022-09-22T05:52:44.195Z,102440.53
2022-09-22T05:55:12.338Z,102441.63
2022-09-22T05:57:41.276Z,102443.47
2022-09-22T06:00:10.102Z,102445.19
2022-09-22T06:02:38.314Z,102449.53
2022-09-22T06:05:06.780Z,102443.09
2022-09-22T06:07:34.461Z,102441.44
2022-09-22T06:10:01.989Z,102451.09
2022-09-22T06:12:29.607Z,102442.53
2022-09-22T06:14:58.482Z,102442.75
2022-09-22T06:17:26.070Z,102447.06
2022-09-22T06:19:53.653Z,102441.09
2022-09-22T06:22:21.211Z,102438.19
2022-09-22T06:24:49.004Z,102441.06
2022-09-22T06:27:16.716Z,102442.16
2022-09-22T06:29:44.295Z,102447.44
2022-09-22T06:32:13.665Z,102441.38
2022-09-22T06:34:41.205Z,102441.00
2022-09-22T06:37:09.226Z,102442.78
2022-09-22T06:39:37.586Z,102436.69
2022-09-22T06:42:05.703Z,102438.91
2022-09-22T06:44:33.613Z,102435.22
2022-09-22T06:47:05.183Z,102434.34
2022-09-22T06:49:34.090Z,102434.22
2022-09-22T06:52:01.842Z,102428.88
2022-09-22T06:54:29.501Z,102430.94
2022-09-22T06:56:57.040Z,102431.00
2022-09-22T06:59:24.695Z,102425.06
2022-09-22T07:01:52.370Z,102430.41
2022-09-22T07:04:22.301Z,102432.38
2022-09-22T07:06:51.344Z,102431.22
2022-09-22T07:09:18.914Z,102436.53
2022-09-22T07:11:47.319Z,102432.06
2022-09-22T07:14:15.050Z,102425.13
2022-09-22T07:16:43.099Z,102430.72
2022-09-22T07:19:10.728Z,102425.03
2022-09-22T07:21:40.305Z,102433.44
2022-09-22T07:24:09.289Z,102433.91
2022-09-22T07:26:38.761Z,102425.13
2022-09-22T07:29:08.504Z,102433.78
2022-09-22T07:31:36.999Z,102425.50
2022-09-22T07:34:05.024Z,102427.03
2022-09-22T07:36:34.725Z,102429.56
2022-09-22T07:39:05.715Z,102430.31
2022-09-22T07:41:41.456Z,102422.81
2022-09-22T07:44:28.057Z,102425.91
2022-09-22T07:46:55.863Z,102432.50
2022-09-22T07:49:23.453Z,102426.66
2022-09-22T07:51:54.657Z,102425.56
2022-09-22T07:54:22.858Z,102422.00
2022-09-22T07:56:56.362Z,102430.28
2022-09-22T07:59:24.009Z,102426.34
2022-09-22T08:01:52.566Z,102436.75
2022-09-22T08:04:22.668Z,102427.47
2022-09-22T08:06:55.332Z,102427.25
2022-09-22T08:09:23.734Z,102428.19
2022-09-22T08:11:53.073Z,102430.28
2022-09-22T08:14:22.941Z,102429.84
2022-09-22T08:16:51.645Z,102430.91
2022-09-22T08:19:19.249Z,102433.81
2022-09-22T08:21:49.695Z,102435.16
2022-09-22T08:24:21.482Z,102435.31
2022-09-22T08:26:51.158Z,102429.13
2022-09-22T08:29:20.250Z,102433.03
2022-09-22T08:31:48.097Z,102424.88
2022-09-22T08:34:17.518Z,102434.31
2022-09-22T08:36:47.161Z,102419.16
2022-09-22T08:39:15.709Z,102428.25
2022-09-22T08:41:56.227Z,102425.69
2022-09-22T08:44:28.126Z,102420.78
2022-09-22T08:47:01.762Z,102425.44
2022-09-22T08:49:53.460Z,102425.69
2022-09-22T08:52:28.279Z,102423.94
2022-09-22T08:54:59.284Z,102426.88
2022-09-22T08:57:49.445Z,102424.06
2022-09-22T09:00:21.497Z,102430.31
2022-09-22T09:03:01.682Z,102426.22
2022-09-22T09:05:51.952Z,102423.03
2022-09-22T09:08:48.782Z,102424.47
2022-09-22T09:11:31.325Z,102423.56
2022-09-22T09:14:13.564Z,102422.31
2022-09-22T09:16:50.185Z,102429.34
2022-09-22T09:19:21.193Z,102422.19
2022-09-22T09:21:54.998Z,102416.69
2022-09-22T09:27:22.359Z,102410.69
2022-09-22T09:30:07.904Z,102407.75
2022-09-22T09:32:48.719Z,102407.44
2022-09-22T09:35:18.845Z,102403.41
2022-09-22T09:37:48.963Z,102396.63
2022-09-22T09:40:19.388Z,102398.75
2022-09-22T09:42:48.537Z,102400.03
2022-09-22T09:45:17.628Z,102394.03
2022-09-22T09:48:09.604Z,102393.19
2022-09-22T09:50:37.845Z,102392.38
2022-09-22T09:53:08.381Z,102388.44
2022-09-22T09:55:36.434Z,102385.34
2022-09-22T09:58:07.093Z,102380.38
2022-09-22T10:00:35.056Z,102372.66
2022-09-22T10:03:14.701Z,102381.75
2022-09-22T10:05:43.436Z,102375.44
2022-09-22T10:08:20.007Z,102385.09
2022-09-22T10:10:49.040Z,102371.97
2022-09-22T10:13:23.110Z,102365.94
2022-09-22T10:16:02.874Z,102367.09
2022-09-22T10:18:36.215Z,102365.44
2022-09-22T10:21:07.076Z,102373.06
2022-09-22T10:23:35.322Z,102367.09
2022-09-22T10:26:22.742Z,102362.03
2022-09-22T10:29:18.074Z,102362.88
2022-09-22T10:32:03.133Z,102362.28
2022-09-22T10:34:34.828Z,102364.19
2022-09-22T10:37:04.714Z,102362.13
2022-09-22T10:39:44.103Z,102350.59
2022-09-22T10:42:23.153Z,102357.38
2022-09-22T10:44:53.185Z,102359.31
2022-09-22T10:47:28.096Z,102351.66
2022-09-22T10:50:28.784Z,102350.00
2022-09-22T10:53:05.546Z,102354.41
2022-09-22T10:55:36.893Z,102356.19
2022-09-22T10:58:26.594Z,102344.88
2022-09-22T11:01:03.866Z,102341.81
2022-09-22T11:04:02.530Z,102347.59
2022-09-22T11:07:28.318Z,102348.78
2022-09-22T11:10:34.874Z,102346.41
2022-09-22T11:13:13.068Z,102344.22
2022-09-22T11:15:56.399Z,102341.50
2022-09-22T11:18:52.169Z,102340.72
2022-09-22T11:21:35.662Z,102342.41
2022-09-22T11:24:26.224Z,102342.41
2022-09-22T11:26:56.946Z,102338.13
2022-09-22T11:29:51.849Z,102335.75
2022-09-22T11:32:54.135Z,102327.53
2022-09-22T11:35:31.861Z,102319.88
2022-09-22T11:38:16.834Z,102328.22
2022-09-22T11:41:04.021Z,102333.22
2022-09-22T11:43:48.809Z,102315.69
2022-09-22T11:46:23.503Z,102323.66
2022-09-22T11:49:06.400Z,102313.53
2022-09-22T11:51:52.822Z,102321.19
2022-09-22T11:54:32.460Z,102321.78
2022-09-22T11:57:05.363Z,102322.53
2022-09-22T11:59:40.606Z,102319.84
2022-09-22T12:02:17.086Z,102320.34
2022-09-22T12:04:50.534Z,102308.75
2022-09-22T12:07:25.051Z,102307.72
2022-09-22T12:09:59.382Z,102301.13
2022-09-22T12:12:30.839Z,102306.44
2022-09-22T12:15:02.842Z,102301.78
2022-09-22T12:17:37.601Z,102304.41
2022-09-22T12:20:18.795Z,102298.38
2022-09-22T12:23:10.249Z,102293.44
2022-09-22T12:25:48.601Z,102292.44
2022-09-22T12:28:20.628Z,102291.91
2022-09-22T12:31:04.816Z,102293.69
2022-09-22T12:33:34.815Z,102296.66
2022-09-22T12:36:04.067Z,102293.94
2022-09-22T12:38:32.366Z,102289.00
2022-09-22T12:41:04.123Z,102281.84
2022-09-22T12:43:36.218Z,102285.66
2022-09-22T12:46:15.569Z,102273.78
2022-09-22T12:48:46.064Z,102278.88
2022-09-22T12:51:27.908Z,102275.31
2022-09-22T12:54:42.334Z,102274.28
2022-09-22T12:57:29.330Z,102269.25
2022-09-22T13:00:06.695Z,102286.44
2022-09-22T13:02:42.245Z,102272.66
2022-09-22T13:05:44.203Z,102277.13
2022-09-22T13:08:25.413Z,102276.47
2022-09-22T13:10:59.039Z,102266.56
2022-09-22T13:13:52.492Z,102268.13
2022-09-22T13:16:35.383Z,102265.00
2022-09-22T13:19:03.955Z,102261.97
2022-09-22T13:21:33.002Z,102260.22
2022-09-22T13:24:02.345Z,102263.19
2022-09-22T13:26:32.365Z,102247.91
2022-09-22T13:29:11.878Z,102244.44
2022-09-22T13:31:42.899Z,102255.34
2022-09-22T13:34:21.151Z,102236.97
2022-09-22T13:36:50.077Z,102241.19
2022-09-22T13:39:22.553Z,102236.16
2022-09-22T13:41:53.774Z,102238.31
2022-09-22T13:44:27.980Z,102221.16
2022-09-22T13:46:57.702Z,102227.72
2022-09-22T13:49:32.054Z,102238.69
2022-09-22T13:52:02.742Z,102230.94
2022-09-22T13:54:34.100Z,102236.06
2022-09-22T13:57:03.525Z,102234.50
2022-09-22T13:59:40.276Z,102241.41
2022-09-22T14:02:10.251Z,102234.53
2022-09-22T14:04:38.280Z,102227.94
2022-09-22T14:07:11.345Z,102230.97
2022-09-22T14:09:40.125Z,102226.22
2022-09-22T14:12:10.698Z,102221.09
2022-09-22T14:14:40.308Z,102218.25
2022-09-22T14:17:16.263Z,102222.69
2022-09-22T14:19:48.709Z,102218.84
2022-09-22T14:22:18.898Z,102213.69
2022-09-22T14:24:50.944Z,102214.09
2022-09-22T14:27:23.805Z,102207.44
2022-09-22T14:29:54.970Z,102208.44
2022-09-22T14:32:28.030Z,102209.34
2022-09-22T14:34:58.497Z,102206.75
2022-09-22T14:37:31.650Z,102213.91
2022-09-22T14:40:02.221Z,102207.91
2022-09-22T14:42:32.107Z,102199.00
2022-09-22T14:45:21.734Z,102193.63
2022-09-22T14:48:19.140Z,102199.25
2022-09-22T14:50:49.425Z,102189.31
2022-09-22T14:53:22.837Z,102200.28
2022-09-22T14:55:52.742Z,102193.03
2022-09-22T14:58:24.892Z,102190.31
2022-09-22T15:01:14.389Z,102188.63
2022-09-22T15:03:45.027Z,102187.78
2022-09-22T15:06:15.239Z,102182.31
2022-09-22T15:08:44.930Z,102171.69
2022-09-22T15:11:12.997Z,102174.34
2022-09-22T15:13:42.070Z,102164.06
2022-09-22T15:16:39.118Z,102178.56
2022-09-22T15:19:10.896Z,102169.13
2022-09-22T15:21:45.932Z,102165.94
2022-09-22T15:24:15.444Z,102169.50
2022-09-22T15:26:44.574Z,102164.97
2022-09-22T15:29:13.216Z,102168.63
2022-09-22T15:31:42.222Z,102164.13
2022-09-22T15:34:10.394Z,102159.19
2022-09-22T15:36:46.511Z,102156.13
2022-09-22T15:39:20.190Z,102155.31
2022-09-22T15:41:48.504Z,102155.81
2022-09-22T15:44:16.472Z,102152.31
2022-09-22T15:46:47.296Z,102143.19
2022-09-22T15:49:18.004Z,102143.25
2022-09-22T15:51:45.912Z,102143.88
2022-09-22T15:54:15.389Z,102141.38
2022-09-22T15:56:43.879Z,102139.50
2022-09-22T15:59:17.894Z,102133.91
2022-09-22T16:01:46.938Z,102137.63
2022-09-22T16:04:14.489Z,102135.56
2022-09-22T16:06:48.047Z,102131.81
2022-09-22T16:09:18.098Z,102137.63
2022-09-22T16:11:45.675Z,102134.91
2022-09-22T16:14:13.734Z,102130.94
2022-09-22T16:16:42.844Z,102129.47
2022-09-22T16:19:11.829Z,102115.38
2022-09-22T16:21:41.320Z,102113.06
2022-09-22T16:24:11.888Z,102109.53
2022-09-22T16:26:41.116Z,102107.19
2022-09-22T16:29:09.479Z,102106.97
2022-09-22T16:31:37.930Z,102102.41
2022-09-22T16:34:06.960Z,102107.94
2022-09-22T16:36:37.018Z,102101.91
2022-09-22T16:39:05.397Z,102097.53
2022-09-22T16:41:34.409Z,102105.97
2022-09-22T16:44:02.840Z,102095.56
2022-09-22T16:46:33.750Z,102106.69
2022-09-22T16:49:04.184Z,102098.97
2022-09-22T16:51:33.243Z,102104.72
2022-09-22T16:54:02.242Z,102096.34
2022-09-22T16:56:31.872Z,102101.41
2022-09-22T16:59:01.278Z,102105.00
2022-09-22T17:01:30.254Z,102093.31
2022-09-22T17:03:58.844Z,102094.41
2022-09-22T17:06:27.318Z,102100.03
2022-09-22T17:08:56.969Z,102099.47
2022-09-22T17:11:30.093Z,102093.69
2022-09-22T17:14:01.300Z,102096.75
2022-09-22T17:16:30.464Z,102099.81
2022-09-22T17:19:02.351Z,102096.53
2022-09-22T17:21:34.064Z,102095.84
2022-09-22T17:24:03.478Z,102095.00
2022-09-22T17:26:34.674Z,102095.00
2022-09-22T17:29:02.729Z,102091.09
2022-09-22T17:31:32.020Z,102092.53
2022-09-22T17:33:59.781Z,102100.03
2022-09-22T17:36:29.012Z,102101.22
2022-09-22T17:38:58.713Z,102094.47
2022-09-22T17:41:29.510Z,102098.22
2022-09-22T17:44:00.879Z,102100.94
2022-09-22T17:46:30.706Z,102097.66
2022-09-22T17:49:16.497Z,102099.56
2022-09-22T17:52:03.117Z,102100.63
2022-09-22T17:54:49.715Z,102101.00
2022-09-22T17:57:20.083Z,102103.91
2022-09-22T17:59:49.399Z,102107.44
2022-09-22T18:02:20.605Z,102100.66
2022-09-22T18:04:48.725Z,102104.34
2022-09-22T18:07:18.462Z,102097.38
2022-09-22T18:09:48.026Z,102099.06
2022-09-22T18:12:21.225Z,102100.28
2022-09-22T18:14:52.344Z,102102.09
2022-09-22T18:17:22.234Z,102101.25
2022-09-22T18:19:49.832Z,102093.25
2022-09-22T18:22:20.947Z,102101.09
2022-09-22T18:24:50.359Z,102098.47
2022-09-22T18:27:19.158Z,102096.66
2022-09-22T18:29:49.884Z,102101.81
2022-09-22T18:32:20.073Z,102097.97
2022-09-22T18:34:48.242Z,102108.50
2022-09-22T18:37:15.881Z,102102.13
2022-09-22T18:39:45.502Z,102105.47
2022-09-22T18:42:14.017Z,102104.47
2022-09-22T18:44:42.146Z,102102.63
2022-09-22T18:47:14.210Z,102112.28
2022-09-22T18:49:44.837Z,102107.78
2022-09-22T18:52:12.421Z,102107.59
2022-09-22T18:54:43.013Z,102110.91
2022-09-22T18:57:12.253Z,102114.22
2022-09-22T18:59:40.260Z,102113.88
2022-09-22T19:02:11.398Z,102110.03
2022-09-22T19:04:39.769Z,102106.19
2022-09-22T19:07:27.076Z,102113.00
2022-09-22T19:09:54.601Z,102113.97
2022-09-22T19:12:22.242Z,102108.09
2022-09-22T19:14:49.995Z,102105.22
2022-09-22T19:17:19.053Z,102102.19
2022-09-22T19:19:49.706Z,102108.00
2022-09-22T19:22:18.626Z,102108.63
2022-09-22T19:24:46.881Z,102112.94
2022-09-22T19:27:17.715Z,102105.41
2022-09-22T19:29:45.498Z,102109.53
2022-09-22T19:32:13.400Z,102103.69
2022-09-22T19:34:40.919Z,102111.16
2022-09-22T19:37:08.798Z,102110.63
2022-09-22T19:39:37.657Z,102111.78
2022-09-22T19:42:05.234Z,102113.25
2022-09-22T19:44:32.781Z,102110.91
2022-09-22T19:47:00.343Z,102108.00
2022-09-22T19:49:27.886Z,102106.50
2022-09-22T19:51:55.410Z,102100.81
2022-09-22T19:54:22.939Z,102103.94
2022-09-22T19:56:51.875Z,102095.44
2022-09-22T19:59:19.707Z,102102.72
2022-09-22T20:01:48.278Z,102105.03
2022-09-22T20:04:17.806Z,102098.34
2022-09-22T20:06:45.621Z,102097.97
2022-09-22T20:09:13.285Z,102098.59
2022-09-22T20:11:43.974Z,102095.41
2022-09-22T20:14:23.691Z,102087.59
2022-09-22T20:16:53.257Z,102093.22
2022-09-22T20:19:21.996Z,102099.81
2022-09-22T20:21:51.338Z,102088.63
2022-09-22T20:24:21.126Z,102089.78
2022-09-22T20:26:49.342Z,102089.09
2022-09-22T20:29:19.588Z,102084.94
2022-09-22T20:31:47.107Z,102079.06
2022-09-22T20:34:15.344Z,102090.88
2022-09-22T20:36:44.113Z,102075.34
2022-09-22T20:39:14.294Z,102076.34
2022-09-22T20:41:42.101Z,102071.34
2022-09-22T20:44:13.841Z,102078.31
2022-09-22T20:46:43.732Z,102077.63
2022-09-22T20:49:13.953Z,102076.25
2022-09-22T20:51:42.218Z,102070.09
2022-09-22T20:54:10.398Z,102074.59
2022-09-22T20:56:42.072Z,102071.09
2022-09-22T20:59:10.658Z,102070.41
2022-09-22T21:01:38.252Z,102062.72
2022-09-22T21:04:07.453Z,102065.69
2022-09-22T21:06:35.196Z,102065.97
2022-09-22T21:09:20.566Z,102063.78
2022-09-22T21:11:48.082Z,102065.91
2022-09-22T21:14:15.854Z,102055.44
2022-09-22T21:16:43.734Z,102051.28
2022-09-22T21:19:13.340Z,102058.41
2022-09-22T21:21:40.982Z,102062.03
2022-09-22T21:24:09.895Z,102050.72
2022-09-22T21:26:37.481Z,102051.69
2022-09-22T21:29:05.079Z,102051.88
2022-09-22T21:31:34.763Z,102048.50
2022-09-22T21:34:02.417Z,102050.31
2022-09-22T21:36:31.326Z,102045.31
2022-09-22T21:39:00.387Z,102044.75
2022-09-22T21:41:29.818Z,102050.38
2022-09-22T21:43:57.410Z,102053.16
2022-09-22T21:46:26.805Z,102049.81
2022-09-22T21:48:55.581Z,102041.44
2022-09-22T21:51:23.132Z,102038.97
2022-09-22T21:53:54.660Z,102037.28
2022-09-22T21:56:24.847Z,102032.25
2022-09-22T21:58:55.090Z,102033.25
2022-09-22T22:01:24.303Z,102026.25
2022-09-22T22:03:53.433Z,102023.47
2022-09-22T22:06:23.074Z,102025.97
2022-09-22T22:08:53.624Z,102031.28
2022-09-22T22:11:23.692Z,102024.28
2022-09-22T22:13:53.654Z,102011.00
2022-09-22T22:16:23.396Z,102019.81
2022-09-22T22:18:51.318Z,102017.88
2022-09-22T22:21:22.621Z,102013.34
2022-09-22T22:23:52.213Z,102014.19
2022-09-22T22:26:23.457Z,102013.22
2022-09-22T22:28:52.366Z,102010.41
2022-09-22T22:31:22.515Z,102009.25
2022-09-22T22:33:51.162Z,102002.00
2022-09-22T22:36:19.510Z,102013.97
2022-09-22T22:38:47.034Z,102005.03
2022-09-22T22:41:16.678Z,102005.56
2022-09-22T22:43:47.815Z,102002.66
2022-09-22T22:46:16.569Z,102002.47
2022-09-22T22:48:44.542Z,102006.53
2022-09-22T22:51:14.507Z,102007.72
2022-09-22T22:53:43.111Z,102007.13
2022-09-22T22:56:14.067Z,101993.09
2022-09-22T22:58:42.660Z,101993.28
2022-09-22T23:01:13.426Z,101996.03
2022-09-22T23:03:42.503Z,101987.97
2022-09-22T23:06:12.050Z,101985.38
2022-09-22T23:08:40.195Z,101978.09
2022-09-22T23:11:11.339Z,101972.84
2022-09-22T23:13:40.418Z,101972.06
2022-09-22T23:16:12.054Z,101973.94
2022-09-22T23:18:42.691Z,101979.31
2022-09-22T23:21:13.462Z,101979.66
2022-09-22T23:23:42.418Z,101977.38
2022-09-22T23:26:11.085Z,101978.03
2022-09-22T23:28:39.462Z,101970.72
2022-09-22T23:31:09.092Z,101971.41
2022-09-22T23:33:39.199Z,101965.91
2022-09-22T23:36:09.149Z,101958.44
2022-09-22T23:38:37.713Z,101958.28
2022-09-22T23:41:06.222Z,101955.47
2022-09-22T23:43:34.127Z,101955.47
2022-09-22T23:46:04.391Z,101956.44
2022-09-22T23:48:33.228Z,101950.47
2022-09-22T23:51:03.625Z,101945.28
2022-09-22T23:53:33.732Z,101939.47
2022-09-22T23:56:02.343Z,101935.28
2022-09-22T23:58:30.180Z,101940.09
